Time;durP1;ratioP1;P1;durP2;ratioP2;P2;SDS_P1;SDS_P2;PMS_P1;PMS_P2;Temp;Humidity;BMP_temperature;BMP_pressure;BME280_temperature;BME280_humidity;BME280_pressure;Samples;Min_cycle;Max_cycle;Signal;HPM_P1;HPM_P2
2022/03/01 00:02:26;;;;;;;33.03;20.52;;;;;;;6.52;53.18;102665.72;4781083;29;120380;-86
2022/03/01 00:04:54;;;;;;;34.40;21.95;;;;;;;6.69;53.36;102681.47;4761874;29;122249;-87
2022/03/01 00:07:20;;;;;;;32.65;19.98;;;;;;;6.66;53.45;102673.25;4792427;29;119855;-87
2022/03/01 00:09:46;;;;;;;34.90;20.40;;;;;;;6.67;53.73;102670.16;4775995;29;120115;-87
2022/03/01 00:12:11;;;;;;;30.10;20.45;;;;;;;6.31;53.15;102622.66;4776933;29;122754;-87
2022/03/01 00:14:37;;;;;;;30.13;21.00;;;;;;;6.46;53.40;102634.50;4760816;29;122391;-85
2022/03/01 00:17:03;;;;;;;30.50;20.65;;;;;;;6.31;53.39;102616.41;4793565;29;120038;-87
2022/03/01 00:19:29;;;;;;;33.80;22.48;;;;;;;6.69;53.39;102673.28;4769197;29;122937;-87
2022/03/01 00:21:56;;;;;;;35.35;20.52;;;;;;;6.66;53.68;102665.09;4777924;29;119939;-87
2022/03/01 00:24:22;;;;;;;33.17;21.15;;;;;;;6.65;53.40;102664.31;4777600;29;119907;-86
2022/03/01 00:26:48;;;;;;;35.17;21.45;;;;;;;6.42;53.46;102633.69;4793571;29;120346;-86
2022/03/01 00:29:13;;;;;;;33.80;21.35;;;;;;;6.59;53.42;102665.78;4763169;29;120372;-86
2022/03/01 00:31:42;;;;;;;35.92;22.75;;;;;;;6.68;53.28;102679.91;4762522;29;122520;-88
2022/03/01 00:34:08;;;;;;;35.45;21.35;;;;;;;6.63;53.50;102672.06;4768625;29;123203;-86
2022/03/01 00:36:36;;;;;;;32.78;20.42;;;;;;;6.59;53.49;102671.22;4774342;29;120157;-86
2022/03/01 00:39:04;;;;;;;35.90;21.75;;;;;;;6.72;53.10;102688.13;4780777;29;119725;-86
2022/03/01 00:41:32;;;;;;;36.00;22.67;;;;;;;6.65;53.22;102675.22;4757343;29;123738;-87
2022/03/01 00:43:58;;;;;;;33.40;21.98;;;;;;;6.64;53.39;102675.59;4766941;29;119702;-86
2022/03/01 00:46:26;;;;;;;34.92;22.02;;;;;;;6.66;53.35;102676.00;4791410;29;123192;-86
2022/03/01 00:48:56;;;;;;;34.85;21.20;;;;;;;6.54;53.21;102660.66;4762576;29;119450;-86
2022/03/01 00:51:21;;;;;;;34.55;21.08;;;;;;;6.60;52.94;102667.34;4794569;29;122190;-87
2022/03/01 00:53:47;;;;;;;33.78;21.67;;;;;;;6.68;52.77;102676.41;4792240;29;120533;-86
2022/03/01 00:56:13;;;;;;;35.55;22.80;;;;;;;6.61;52.69;102663.44;4782062;29;119933;-85
2022/03/01 00:58:38;;;;;;;33.53;21.77;;;;;;;6.66;52.93;102665.09;4760397;29;122372;-85
2022/03/01 01:01:04;;;;;;;35.47;21.80;;;;;;;6.72;53.04;102669.03;4777813;29;122152;-86
2022/03/01 01:03:29;;;;;;;36.35;21.15;;;;;;;6.57;53.13;102627.19;4748065;29;119841;-86
2022/03/01 01:05:55;;;;;;;33.13;21.73;;;;;;;6.72;52.58;102650.72;4764970;29;123789;-86
2022/03/01 01:08:21;;;;;;;35.50;23.13;;;;;;;6.72;52.81;102653.44;4778015;29;120233;-85
2022/03/01 01:10:48;;;;;;;34.30;22.40;;;;;;;6.76;53.11;102664.38;4778426;29;122823;-85
2022/03/01 01:13:14;;;;;;;38.00;22.52;;;;;;;6.75;53.01;102658.16;4792157;29;120708;-85
2022/03/01 01:15:40;;;;;;;34.90;21.55;;;;;;;6.65;53.01;102639.75;4791772;29;119760;-86
2022/03/01 01:18:06;;;;;;;36.20;21.83;;;;;;;6.60;52.52;102620.97;4778799;29;119530;-85
2022/03/01 01:20:31;;;;;;;37.00;22.00;;;;;;;6.80;53.41;102637.13;4761901;29;125598;-86
2022/03/01 01:22:57;;;;;;;38.20;23.02;;;;;;;6.52;52.87;102594.03;4777556;29;119631;-86
2022/03/01 01:25:24;;;;;;;31.98;22.30;;;;;;;6.80;53.12;102637.91;4762932;29;122918;-86
2022/03/01 01:27:55;;;;;;;34.22;21.00;;;;;;;6.76;52.76;102640.63;4765202;29;123912;-87
2022/03/01 01:30:24;;;;;;;32.72;22.23;;;;;;;6.65;52.68;102630.78;4791124;29;119818;-86
2022/03/01 01:32:50;;;;;;;33.90;22.20;;;;;;;6.57;52.70;102620.94;4791544;29;120647;-87
2022/03/01 01:35:19;;;;;;;36.35;23.48;;;;;;;6.67;53.13;102634.72;4795002;29;119816;-87
2022/03/01 01:37:45;;;;;;;35.83;22.67;;;;;;;6.56;52.80;102630.28;4764160;29;122418;-86
2022/03/01 01:40:15;;;;;;;36.42;22.33;;;;;;;6.66;52.51;102644.06;4792349;29;119798;-87
2022/03/01 01:42:40;;;;;;;35.90;22.33;;;;;;;6.62;52.57;102637.75;4778702;29;120773;-86
2022/03/01 01:45:06;;;;;;;35.70;22.10;;;;;;;6.68;52.28;102649.91;4780267;29;122511;-85
2022/03/01 01:47:32;;;;;;;31.95;21.55;;;;;;;6.76;52.44;102643.34;4792699;29;120251;-86
2022/03/01 01:49:58;;;;;;;36.17;22.50;;;;;;;6.75;52.68;102657.38;4782578;29;119668;-86
2022/03/01 01:52:24;;;;;;;35.83;22.35;;;;;;;6.64;52.38;102637.41;4793150;29;121399;-86
2022/03/01 01:54:50;;;;;;;36.75;22.13;;;;;;;6.60;51.89;102625.66;4777482;29;119570;-85
2022/03/01 01:57:21;;;;;;;36.70;22.60;;;;;;;6.78;52.36;102641.03;4776384;29;127517;-85
2022/03/01 01:59:48;;;;;;;32.33;21.40;;;;;;;6.63;52.27;102625.72;4773166;29;123523;-85
2022/03/01 02:02:16;;;;;;;37.00;22.15;;;;;;;6.64;52.12;102646.38;4776373;29;119791;-86
2022/03/01 02:04:43;;;;;;;33.80;22.13;;;;;;;6.51;52.27;102633.38;4793745;29;120068;-86
2022/03/01 02:07:09;;;;;;;34.60;22.55;;;;;;;6.55;52.77;102636.91;4778217;29;122613;-86
2022/03/01 02:09:35;;;;;;;34.20;21.52;;;;;;;6.65;52.21;102647.16;4778146;29;120066;-85
2022/03/01 02:12:02;;;;;;;37.72;23.08;;;;;;;6.60;52.68;102642.00;4796651;29;120095;-85
2022/03/01 02:14:32;;;;;;;34.42;21.23;;;;;;;6.52;52.71;102622.09;4777425;29;119468;-86
2022/03/01 02:16:59;;;;;;;34.55;21.35;;;;;;;6.50;52.39;102620.91;4778224;29;121499;-86
2022/03/01 02:19:26;;;;;;;35.78;20.73;;;;;;;6.49;52.25;102631.00;4786977;29;121542;-86
2022/03/01 02:21:57;;;;;;;35.45;21.45;;;;;;;6.45;52.02;102636.44;4779118;29;119521;-86
2022/03/01 02:24:26;;;;;;;34.22;21.25;;;;;;;6.44;52.78;102653.94;4786177;29;121740;-85
2022/03/01 02:27:00;;;;;;;36.92;21.00;;;;;;;6.45;52.72;102654.75;4760785;29;123191;-86
2022/03/01 02:29:27;;;;;;;33.42;21.05;;;;;;;6.49;52.57;102650.09;4780322;29;119630;-87
2022/03/01 02:31:54;;;;;;;32.10;19.83;;;;;;;6.51;52.46;102647.78;4781898;29;119475;-86
2022/03/01 02:34:20;;;;;;;34.40;20.65;;;;;;;6.44;52.66;102634.09;4784279;29;123130;-86
2022/03/01 02:36:47;;;;;;;36.80;21.48;;;;;;;6.46;52.62;102631.78;4785076;29;122952;-85
2022/03/01 02:39:14;;;;;;;35.80;22.33;;;;;;;6.42;53.00;102620.06;4766780;29;122961;-86
2022/03/01 02:41:41;;;;;;;33.63;21.08;;;;;;;6.47;52.47;102634.13;4776891;29;119714;-86
2022/03/01 02:44:08;;;;;;;34.72;21.13;;;;;;;6.40;52.55;102622.38;4781602;29;121719;-86
2022/03/01 02:46:34;;;;;;;34.38;21.30;;;;;;;6.45;52.48;102627.47;4778628;29;123192;-85
2022/03/01 02:49:00;;;;;;;34.63;21.23;;;;;;;6.49;52.22;102646.59;4779258;29;120012;-86
2022/03/01 02:51:26;;;;;;;34.63;20.58;;;;;;;6.32;52.28;102623.44;4796108;29;119558;-86
2022/03/01 02:53:51;;;;;;;37.15;21.25;;;;;;;6.36;52.53;102635.94;4766775;29;122513;-86
2022/03/01 02:56:17;;;;;;;35.92;20.73;;;;;;;6.32;52.13;102639.78;4764743;29;119447;-85
2022/03/01 02:58:42;;;;;;;36.35;20.58;;;;;;;5.97;52.78;102580.25;4778527;29;123032;-85
2022/03/01 03:01:08;;;;;;;33.85;20.42;;;;;;;6.35;53.02;102622.69;4764627;29;119909;-85
2022/03/01 03:03:34;;;;;;;33.50;20.05;;;;;;;6.22;52.62;102607.75;4765209;29;121923;-86
2022/03/01 03:06:00;;;;;;;32.00;21.10;;;;;;;6.24;52.49;102616.34;4763292;29;123368;-84
2022/03/01 03:08:25;;;;;;;34.88;20.33;;;;;;;6.26;52.27;102619.47;4780839;29;120521;-86
2022/03/01 03:10:51;;;;;;;31.33;20.23;;;;;;;6.19;52.51;102605.78;4779762;29;119836;-86
2022/03/01 03:13:16;;;;;;;36.22;20.75;;;;;;;6.20;52.71;102601.91;4787945;29;122906;-84
2022/03/01 03:15:46;;;;;;;32.47;19.20;;;;;;;6.22;52.05;102602.31;4769597;29;119772;-86
2022/03/01 03:18:13;;;;;;;35.00;20.75;;;;;;;6.09;52.31;102582.69;4749364;29;123023;-84
2022/03/01 03:20:38;;;;;;;32.05;19.70;;;;;;;6.23;52.13;102604.66;4755255;29;120345;-85
2022/03/01 03:23:04;;;;;;;33.67;19.90;;;;;;;6.24;52.12;102606.22;4779856;29;119574;-85
2022/03/01 03:25:30;;;;;;;30.73;19.88;;;;;;;6.17;52.00;102591.75;4794497;29;120769;-84
2022/03/01 03:27:56;;;;;;;32.08;19.92;;;;;;;6.20;52.29;102596.44;4779852;29;120596;-85
2022/03/01 03:30:22;;;;;;;33.40;19.25;;;;;;;6.32;52.12;102607.84;4795382;29;119261;-85
2022/03/01 03:32:47;;;;;;;32.35;19.30;;;;;;;6.23;51.58;102601.94;4794407;29;123038;-85
2022/03/01 03:35:13;;;;;;;29.35;18.75;;;;;;;6.18;51.98;102590.59;4794525;29;119930;-85
2022/03/01 03:37:41;;;;;;;32.63;20.15;;;;;;;6.32;52.21;102601.63;4798719;29;121355;-84
2022/03/01 03:40:08;;;;;;;33.70;19.33;;;;;;;6.37;51.76;102604.78;4759805;29;119783;-85
2022/03/01 03:42:34;;;;;;;32.53;19.40;;;;;;;6.34;51.39;102604.75;4775434;29;119460;-85
2022/03/01 03:44:59;;;;;;;34.90;19.00;;;;;;;6.32;51.77;102601.63;4776018;29;123401;-85
2022/03/01 03:47:25;;;;;;;32.60;18.75;;;;;;;6.33;51.31;102600.47;4779560;29;119558;-84
2022/03/01 03:49:50;;;;;;;30.40;18.98;;;;;;;6.30;51.56;102598.50;4767541;29;123093;-85
2022/03/01 03:52:19;;;;;;;32.35;18.85;;;;;;;6.26;51.72;102598.47;4778489;29;124278;-85
2022/03/01 03:54:44;;;;;;;32.63;19.20;;;;;;;6.16;51.58;102577.34;4793392;29;120329;-85
2022/03/01 03:57:10;;;;;;;29.95;18.70;;;;;;;6.11;52.05;102562.09;4794414;29;119438;-85
2022/03/01 03:59:37;;;;;;;28.13;18.98;;;;;;;6.20;51.91;102578.16;4768010;29;122743;-85
2022/03/01 04:02:04;;;;;;;35.38;19.55;;;;;;;6.25;52.05;102586.00;4775536;29;121634;-85
2022/03/01 04:04:33;;;;;;;31.95;18.60;;;;;;;6.04;51.69;102539.44;4777472;29;122696;-84
2022/03/01 04:06:59;;;;;;;32.38;19.60;;;;;;;6.28;51.62;102589.91;4778044;29;120627;-85
2022/03/01 04:09:25;;;;;;;31.35;19.20;;;;;;;6.19;51.54;102573.09;4778690;29;121914;-84
2022/03/01 04:11:51;;;;;;;32.05;19.63;;;;;;;6.22;52.26;102573.13;4777303;29;120080;-85
2022/03/01 04:14:20;;;;;;;32.03;19.33;;;;;;;6.07;52.24;102553.09;4780132;29;119333;-86
2022/03/01 04:16:46;;;;;;;29.15;18.90;;;;;;;6.17;52.10;102550.88;4764500;29;122780;-85
2022/03/01 04:19:12;;;;;;;33.60;19.48;;;;;;;6.23;52.05;102584.81;4792930;29;120666;-85
2022/03/01 04:21:39;;;;;;;33.22;19.27;;;;;;;6.28;52.49;102590.69;4777152;29;122003;-85
2022/03/01 04:24:06;;;;;;;31.23;19.95;;;;;;;6.28;52.81;102585.25;4780111;29;126187;-85
2022/03/01 04:26:32;;;;;;;33.60;19.13;;;;;;;6.30;52.33;102579.41;4779039;29;120975;-85
2022/03/01 04:29:00;;;;;;;33.78;18.95;;;;;;;6.28;52.28;102573.56;4763808;29;122349;-85
2022/03/01 04:31:26;;;;;;;32.92;19.75;;;;;;;6.29;52.48;102575.91;4779135;29;120208;-85
2022/03/01 04:33:54;;;;;;;29.40;18.05;;;;;;;6.20;52.46;102555.56;4778327;29;119711;-84
2022/03/01 04:36:19;;;;;;;31.98;18.67;;;;;;;6.27;52.09;102556.41;4793540;29;119371;-86
2022/03/01 04:38:45;;;;;;;30.60;17.67;;;;;;;6.15;51.77;102538.41;4767270;29;123068;-86
2022/03/01 04:41:11;;;;;;;30.25;19.10;;;;;;;6.28;52.33;102568.09;4795190;29;119804;-86
2022/03/01 04:43:36;;;;;;;29.75;17.40;;;;;;;6.17;51.67;102564.50;4783687;29;121447;-85
2022/03/01 04:46:03;;;;;;;29.90;17.85;;;;;;;6.29;52.19;102577.84;4777648;29;119376;-85
2022/03/01 04:48:29;;;;;;;31.67;18.58;;;;;;;6.25;51.83;102580.53;4792831;29;119640;-85
2022/03/01 04:50:56;;;;;;;31.48;19.20;;;;;;;6.29;51.94;102577.84;4761463;29;122645;-84
2022/03/01 04:53:21;;;;;;;30.63;18.67;;;;;;;6.17;51.78;102562.56;4777799;29;122312;-86
2022/03/01 04:55:47;;;;;;;27.15;18.20;;;;;;;6.25;51.64;102568.84;4778079;29;119515;-86
2022/03/01 04:58:13;;;;;;;31.88;17.52;;;;;;;6.21;51.14;102576.22;4779152;29;122740;-86
2022/03/01 05:00:39;;;;;;;30.40;18.02;;;;;;;6.23;51.23;102579.34;4764477;29;121371;-84
2022/03/01 05:03:04;;;;;;;27.90;17.25;;;;;;;6.13;51.47;102550.81;4766455;29;120758;-85
2022/03/01 05:05:30;;;;;;;28.95;17.00;;;;;;;6.08;51.51;102554.66;4763357;29;119578;-85
2022/03/01 05:07:56;;;;;;;31.33;18.30;;;;;;;6.20;51.27;102564.53;4763517;29;121662;-85
2022/03/01 05:10:22;;;;;;;31.95;17.88;;;;;;;6.08;51.36;102553.88;4777355;29;121198;-85
2022/03/01 05:12:55;;;;;;;29.23;17.55;;;;;;;6.20;51.35;102574.66;4765923;29;119560;-85
2022/03/01 05:15:23;;;;;;;30.48;17.25;;;;;;;6.22;51.44;102572.34;4765317;29;122296;-84
2022/03/01 05:17:49;;;;;;;30.30;17.58;;;;;;;6.24;51.29;102561.84;4779989;29;123050;-85
2022/03/01 05:20:17;;;;;;;28.73;17.08;;;;;;;6.12;50.71;102549.25;4777737;29;119604;-84
2022/03/01 05:22:43;;;;;;;29.45;18.20;;;;;;;6.09;51.09;102539.09;4775713;29;122384;-83
2022/03/01 05:25:11;;;;;;;28.75;17.30;;;;;;;6.23;50.90;102550.16;4781805;29;123835;-85
2022/03/01 05:27:38;;;;;;;27.30;17.63;;;;;;;6.15;51.30;102543.88;4779367;29;119687;-85
2022/03/01 05:30:09;;;;;;;28.98;17.08;;;;;;;6.25;50.98;102556.00;4776671;29;119931;-85
2022/03/01 05:32:36;;;;;;;32.33;17.88;;;;;;;6.25;50.60;102555.22;4775187;29;120178;-84
2022/03/01 05:35:04;;;;;;;28.38;17.05;;;;;;;6.24;50.66;102559.91;4764640;29;121878;-83
2022/03/01 05:37:30;;;;;;;32.85;18.15;;;;;;;6.22;50.66;102548.59;4778621;29;123489;-85
2022/03/01 05:39:55;;;;;;;31.30;17.90;;;;;;;6.21;50.98;102549.75;4778653;29;119710;-85
2022/03/01 05:42:22;;;;;;;28.33;16.92;;;;;;;6.25;50.69;102547.06;4760668;29;121911;-85
2022/03/01 05:44:47;;;;;;;25.30;16.95;;;;;;;6.20;50.92;102536.50;4778605;29;122985;-86
2022/03/01 05:47:13;;;;;;;28.67;16.75;;;;;;;6.20;50.87;102539.22;4765501;29;120100;-86
2022/03/01 05:49:38;;;;;;;28.23;16.48;;;;;;;6.30;50.14;102549.44;4760414;29;122652;-85
2022/03/01 05:52:05;;;;;;;26.70;16.08;;;;;;;6.19;50.43;102537.66;4781354;29;119748;-85
2022/03/01 05:54:31;;;;;;;28.70;16.65;;;;;;;6.18;50.43;102536.09;4781224;29;122730;-85
2022/03/01 05:56:56;;;;;;;29.13;17.45;;;;;;;6.04;50.76;102515.72;4786057;29;122810;-86
2022/03/01 05:59:22;;;;;;;28.05;17.45;;;;;;;6.27;50.53;102553.69;4766521;29;119768;-85
2022/03/01 06:01:48;;;;;;;27.55;17.00;;;;;;;6.14;50.90;102536.81;4778581;29;119419;-89
2022/03/01 06:04:13;;;;;;;25.85;15.85;;;;;;;6.07;50.88;102525.84;4765796;29;123839;-86
2022/03/01 06:06:39;;;;;;;29.15;16.73;;;;;;;6.18;50.82;102538.81;4765310;29;119542;-85
2022/03/01 06:09:05;;;;;;;27.85;16.63;;;;;;;6.26;50.74;102546.69;4785447;29;123792;-85
2022/03/01 06:11:31;;;;;;;26.98;15.52;;;;;;;6.31;50.17;102542.81;4780844;29;119870;-86
2022/03/01 06:13:57;;;;;;;29.92;16.38;;;;;;;6.23;50.05;102525.63;4784047;29;122445;-86
2022/03/01 06:16:22;;;;;;;27.45;17.33;;;;;;;6.18;49.89;102520.53;4766120;29;122642;-87
2022/03/01 06:18:48;;;;;;;28.05;16.15;;;;;;;6.25;50.63;102530.69;4795541;29;119636;-85
2022/03/01 06:21:14;;;;;;;32.53;17.75;;;;;;;6.35;49.86;102543.63;4768578;29;122026;-86
2022/03/01 06:23:39;;;;;;;28.90;16.33;;;;;;;6.29;50.08;102539.69;4795170;29;120011;-85
2022/03/01 06:26:05;;;;;;;28.88;16.27;;;;;;;6.02;50.14;102504.41;4781703;29;121301;-85
2022/03/01 06:28:31;;;;;;;29.35;17.52;;;;;;;6.27;50.02;102539.28;4780429;29;123342;-86
2022/03/01 06:30:56;;;;;;;28.55;16.23;;;;;;;6.20;50.07;102518.22;4802568;29;122892;-85
2022/03/01 06:33:23;;;;;;;27.25;16.50;;;;;;;6.36;50.25;102553.38;4781284;29;122081;-85
2022/03/01 06:35:48;;;;;;;28.60;16.08;;;;;;;6.32;50.01;102547.13;4764204;29;123068;-85
2022/03/01 06:38:14;;;;;;;26.10;15.70;;;;;;;6.36;49.93;102553.38;4783576;29;119507;-86
2022/03/01 06:40:39;;;;;;;27.25;16.08;;;;;;;6.46;49.51;102567.13;4778680;29;126304;-86
2022/03/01 06:43:05;;;;;;;29.63;16.48;;;;;;;6.43;50.33;102558.91;4764827;29;120519;-86
2022/03/01 06:45:32;;;;;;;25.75;15.90;;;;;;;6.20;49.83;102525.59;4789413;29;119894;-86
2022/03/01 06:47:58;;;;;;;27.40;16.35;;;;;;;6.43;48.99;102556.19;4781342;29;122123;-86
2022/03/01 06:50:25;;;;;;;28.75;16.63;;;;;;;6.45;49.03;102551.13;4778457;29;122634;-85
2022/03/01 06:52:51;;;;;;;28.40;15.93;;;;;;;6.57;49.64;102582.78;4787018;29;119952;-85
2022/03/01 06:55:16;;;;;;;28.08;16.90;;;;;;;6.60;49.67;102582.81;4779071;29;123098;-86
2022/03/01 06:57:43;;;;;;;28.42;16.50;;;;;;;6.59;49.20;102572.28;4779006;29;121684;-86
2022/03/01 07:00:11;;;;;;;26.83;16.40;;;;;;;6.64;49.77;102566.50;4765259;29;121601;-87
2022/03/01 07:02:39;;;;;;;28.70;15.63;;;;;;;6.55;49.67;102555.88;4782230;29;120622;-86
2022/03/01 07:05:06;;;;;;;25.33;15.75;;;;;;;6.65;49.05;102565.34;4780791;29;119616;-87
2022/03/01 07:07:32;;;;;;;26.75;16.20;;;;;;;6.59;49.07;102573.06;4767031;29;121792;-86
2022/03/01 07:09:58;;;;;;;27.48;16.38;;;;;;;6.72;48.75;102579.81;4779445;29;123800;-86
2022/03/01 07:12:23;;;;;;;29.60;16.05;;;;;;;6.67;49.06;102571.97;4753027;29;120958;-87
2022/03/01 07:14:53;;;;;;;29.95;15.65;;;;;;;6.61;48.56;102561.78;4783670;29;123017;-86
2022/03/01 07:17:19;;;;;;;25.45;16.60;;;;;;;6.75;49.05;102581.00;4781151;29;119598;-86
2022/03/01 07:19:45;;;;;;;27.23;16.33;;;;;;;6.69;48.63;102569.66;4778624;29;121991;-87
2022/03/01 07:22:11;;;;;;;25.58;16.15;;;;;;;6.76;48.16;102582.56;4780861;29;122704;-87
2022/03/01 07:24:36;;;;;;;28.48;16.30;;;;;;;6.76;48.85;102577.09;4780984;29;119688;-86
2022/03/01 07:27:02;;;;;;;25.45;15.60;;;;;;;6.63;48.43;102557.53;4779245;29;120235;-87
2022/03/01 07:29:30;;;;;;;24.95;15.60;;;;;;;6.85;48.45;102585.75;4781912;29;122624;-86
2022/03/01 07:31:56;;;;;;;23.45;15.70;;;;;;;6.72;47.61;102555.25;4779551;29;120497;-86
2022/03/01 07:34:24;;;;;;;23.10;15.15;;;;;;;6.91;47.92;102583.47;4798537;29;120023;-85
2022/03/01 07:36:50;;;;;;;29.38;16.35;;;;;;;6.92;48.20;102582.31;4781614;29;119708;-86
2022/03/01 07:39:15;;;;;;;26.92;16.17;;;;;;;6.92;48.34;102585.03;4794037;29;120797;-86
2022/03/01 07:41:41;;;;;;;27.27;16.00;;;;;;;6.88;47.92;102590.47;4762612;29;123247;-87
2022/03/01 07:44:09;;;;;;;28.63;17.08;;;;;;;6.95;47.85;102597.91;4795842;29;119681;-86
2022/03/01 07:46:35;;;;;;;24.73;16.27;;;;;;;6.75;47.49;102570.09;4794674;29;122732;-86
2022/03/01 07:49:00;;;;;;;26.35;16.05;;;;;;;6.81;48.11;102590.38;4779606;29;123002;-86
2022/03/01 07:51:26;;;;;;;25.42;16.65;;;;;;;6.94;48.02;102591.66;4779559;29;120020;-87
2022/03/01 07:53:52;;;;;;;26.50;16.25;;;;;;;6.86;48.34;102581.06;4766114;29;122273;-87
2022/03/01 07:56:21;;;;;;;29.83;16.02;;;;;;;6.73;48.48;102548.66;4785281;29;123179;-87
2022/03/01 07:58:48;;;;;;;26.17;16.63;;;;;;;6.86;47.96;102576.41;4783815;29;119613;-86
2022/03/01 08:01:14;;;;;;;24.08;16.27;;;;;;;7.07;48.24;102606.56;4793960;29;125028;-86
2022/03/01 08:03:41;;;;;;;27.58;16.23;;;;;;;6.94;48.82;102579.97;4778765;29;120418;-86
2022/03/01 08:06:06;;;;;;;27.63;16.02;;;;;;;7.07;47.87;102590.19;4801060;29;119450;-86
2022/03/01 08:08:32;;;;;;;25.55;15.88;;;;;;;7.03;48.53;102581.19;4766067;29;123218;-85
2022/03/01 08:10:58;;;;;;;24.38;16.17;;;;;;;7.04;48.52;102577.31;4779443;29;119646;-86
2022/03/01 08:13:24;;;;;;;24.27;15.55;;;;;;;7.22;47.58;102602.00;4779063;29;121697;-85
2022/03/01 08:15:50;;;;;;;25.67;16.00;;;;;;;7.13;47.84;102573.47;4779468;29;122608;-85
2022/03/01 08:18:16;;;;;;;25.48;15.98;;;;;;;7.23;48.31;102570.81;4782761;29;120035;-86
2022/03/01 08:20:42;;;;;;;25.08;16.08;;;;;;;7.35;48.72;102583.38;4783896;29;120072;-86
2022/03/01 08:23:09;;;;;;;28.17;16.55;;;;;;;7.41;48.32;102567.41;4779580;29;119901;-87
2022/03/01 08:25:34;;;;;;;26.65;16.42;;;;;;;7.44;48.74;102577.56;4763456;29;122673;-87
2022/03/01 08:28:00;;;;;;;25.80;16.30;;;;;;;7.59;47.45;102584.66;4763008;29;122731;-85
2022/03/01 08:30:28;;;;;;;29.02;16.60;;;;;;;7.56;48.13;102575.25;4763523;29;119553;-86
2022/03/01 08:32:54;;;;;;;29.38;17.20;;;;;;;7.69;47.35;102586.66;4791469;29;120115;-86
2022/03/01 08:35:20;;;;;;;25.90;15.88;;;;;;;7.58;47.56;102574.91;4792490;29;123377;-85
2022/03/01 08:37:46;;;;;;;24.67;16.17;;;;;;;7.63;47.65;102582.72;4763752;29;119542;-86
2022/03/01 08:40:13;;;;;;;26.33;16.23;;;;;;;7.75;47.33;102598.75;4779205;29;121704;-86
2022/03/01 08:42:39;;;;;;;27.23;15.05;;;;;;;7.57;47.93;102570.56;4760909;29;119859;-87
2022/03/01 08:45:06;;;;;;;27.13;16.85;;;;;;;7.56;46.92;102553.41;4778457;29;121763;-86
2022/03/01 08:47:31;;;;;;;26.80;17.35;;;;;;;7.95;47.94;102597.28;4777467;29;122789;-86
2022/03/01 08:49:57;;;;;;;27.00;16.83;;;;;;;8.00;46.81;102582.47;4778056;29;119940;-86
2022/03/01 08:52:23;;;;;;;25.05;16.05;;;;;;;7.99;46.66;102587.16;4779283;29;122072;-86
2022/03/01 08:54:48;;;;;;;29.55;17.67;;;;;;;7.96;47.16;102581.66;4777680;29;123113;-86
2022/03/01 08:57:14;;;;;;;27.60;17.20;;;;;;;8.06;46.50;102591.09;4777081;29;120546;-85
2022/03/01 08:59:40;;;;;;;24.77;16.48;;;;;;;8.10;47.29;102591.88;4800683;29;119700;-86
2022/03/01 09:02:06;;;;;;;29.17;18.02;;;;;;;7.94;47.31;102576.59;4778678;29;120213;-85
2022/03/01 09:04:32;;;;;;;23.42;15.88;;;;;;;8.06;48.53;102580.16;4762861;29;122380;-87
2022/03/01 09:06:57;;;;;;;26.00;16.13;;;;;;;8.13;47.20;102582.91;4776956;29;123086;-86
2022/03/01 09:09:23;;;;;;;28.80;16.55;;;;;;;8.14;47.23;102587.19;4778381;29;122094;-85
2022/03/01 09:11:48;;;;;;;30.98;17.50;;;;;;;8.18;47.78;102594.22;4794502;29;119702;-85
2022/03/01 09:14:19;;;;;;;29.15;17.65;;;;;;;8.23;47.54;102590.31;4792716;29;120094;-86
2022/03/01 09:16:45;;;;;;;29.85;17.63;;;;;;;8.35;46.90;102603.69;4792692;29;120033;-86
2022/03/01 09:19:16;;;;;;;28.02;17.13;;;;;;;8.35;46.88;102592.75;4790070;29;121875;-86
2022/03/01 09:21:42;;;;;;;25.02;16.42;;;;;;;8.31;46.72;102589.19;4780293;29;120693;-86
2022/03/01 09:24:09;;;;;;;29.75;17.52;;;;;;;8.36;47.50;102575.16;4776692;29;122123;-86
2022/03/01 09:26:34;;;;;;;28.33;16.33;;;;;;;8.47;47.63;102577.88;4774609;29;119948;-86
2022/03/01 09:29:00;;;;;;;25.48;17.02;;;;;;;8.60;46.91;102581.81;4776119;29;119651;-85
2022/03/01 09:31:25;;;;;;;23.92;16.27;;;;;;;8.62;45.65;102574.00;4779860;29;119780;-86
2022/03/01 09:33:51;;;;;;;25.40;16.85;;;;;;;8.71;46.39;102581.81;4775463;29;123081;-85
2022/03/01 09:36:17;;;;;;;27.33;16.60;;;;;;;8.69;45.95;102557.59;4777077;29;121032;-86
2022/03/01 09:38:44;;;;;;;24.00;16.65;;;;;;;8.75;45.06;102560.69;4776888;29;119682;-86
2022/03/01 09:41:12;;;;;;;25.27;17.13;;;;;;;8.75;45.95;102571.66;4776881;29;120445;-85
2022/03/01 09:43:39;;;;;;;26.63;17.25;;;;;;;8.73;46.23;102580.25;4797662;29;119761;-85
2022/03/01 09:46:07;;;;;;;24.10;17.13;;;;;;;8.64;46.84;102555.25;4775686;29;122711;-86
2022/03/01 09:48:32;;;;;;;30.60;17.08;;;;;;;8.83;46.37;102574.00;4759040;29;120515;-86
2022/03/01 09:51:01;;;;;;;27.13;16.80;;;;;;;8.98;46.48;102585.69;4779081;29;121710;-85
2022/03/01 09:53:27;;;;;;;27.73;16.58;;;;;;;9.03;44.99;102582.59;4787679;29;120273;-85
2022/03/01 09:55:54;;;;;;;28.52;17.13;;;;;;;9.10;46.15;102579.84;4775776;29;119694;-85
2022/03/01 09:58:20;;;;;;;29.83;17.90;;;;;;;9.17;45.65;102588.03;4777858;29;121877;-86
2022/03/01 10:00:45;;;;;;;25.98;17.42;;;;;;;9.18;46.08;102584.13;4775295;29;123143;-86
2022/03/01 10:03:15;;;;;;;27.70;17.08;;;;;;;9.20;44.80;102579.03;4761616;29;119962;-85
2022/03/01 10:05:42;;;;;;;27.95;17.23;;;;;;;9.00;46.15;102547.00;4780333;29;120119;-86
2022/03/01 10:08:09;;;;;;;25.80;17.00;;;;;;;9.43;46.23;102599.72;4794969;29;119927;-85
2022/03/01 10:10:54;;;;;;;30.85;17.50;;;;;;;9.39;45.66;102590.72;4776093;29;122530;-84
2022/03/01 10:13:30;;;;;;;25.38;17.08;;;;;;;9.43;45.12;102594.22;4777585;29;123018;-83
2022/03/01 10:16:08;;;;;;;30.20;17.83;;;;;;;9.44;45.67;102599.31;4777068;29;120471;-84
2022/03/01 10:18:36;;;;;;;27.70;17.55;;;;;;;9.51;46.01;102588.34;4777943;29;121689;-84
2022/03/01 10:21:11;;;;;;;26.25;17.75;;;;;;;9.60;45.99;102587.91;4775262;29;123517;-84
2022/03/01 10:23:46;;;;;;;28.75;17.45;;;;;;;9.64;44.75;102585.16;4776964;29;120370;-84
2022/03/01 10:26:18;;;;;;;25.50;17.30;;;;;;;9.66;44.82;102596.50;4777448;29;122476;-85
2022/03/01 10:28:45;;;;;;;31.23;17.08;;;;;;;9.61;45.83;102589.47;4765643;29;123038;-84
2022/03/01 10:31:16;;;;;;;27.38;17.85;;;;;;;9.53;45.59;102577.00;4774646;29;122471;-84
2022/03/01 10:33:57;;;;;;;26.55;17.88;;;;;;;9.69;45.71;102591.00;4765775;29;123416;-87
2022/03/01 10:36:25;;;;;;;27.95;17.88;;;;;;;9.69;45.86;102577.31;4764715;29;119319;-87
2022/03/01 10:39:01;;;;;;;27.52;18.15;;;;;;;9.73;46.84;102591.00;4762657;29;121996;-87
2022/03/01 10:41:29;;;;;;;26.08;17.75;;;;;;;9.79;46.11;102594.91;4765872;29;123460;-88
2022/03/01 10:43:59;;;;;;;29.63;18.60;;;;;;;9.87;45.31;102599.16;4767030;29;120553;-88
2022/03/01 10:46:27;;;;;;;26.98;18.02;;;;;;;9.87;44.81;102599.16;4793503;29;121079;-87
2022/03/01 10:49:08;;;;;;;25.27;17.55;;;;;;;9.76;44.73;102588.25;4779250;29;123181;-87
2022/03/01 10:51:50;;;;;;;27.23;17.63;;;;;;;9.81;44.27;102598.81;4785670;29;121159;-87
2022/03/01 10:54:32;;;;;;;26.80;18.48;;;;;;;9.78;45.10;102583.16;4793726;29;120863;-87
2022/03/01 10:57:00;;;;;;;29.02;18.58;;;;;;;9.86;45.79;102597.59;4782033;29;121888;-88
2022/03/01 10:59:28;;;;;;;34.25;18.48;;;;;;;9.95;45.46;102588.97;4751490;29;121942;-86
2022/03/01 11:01:56;;;;;;;28.52;18.00;;;;;;;9.91;45.51;102579.94;4781591;29;122587;-87
2022/03/01 11:04:24;;;;;;;25.95;17.20;;;;;;;9.79;45.58;102542.81;4764557;29;119843;-86
2022/03/01 11:06:50;;;;;;;26.73;17.85;;;;;;;10.14;45.27;102583.75;4770060;29;120045;-85
2022/03/01 11:09:17;;;;;;;26.35;17.67;;;;;;;10.26;45.40;102585.28;4778127;29;123594;-86